sensor_id;sensor_type;location;lat;lon;timestamp;pressure;altitude;pressure_sealevel;temperature;humidity
1616;BME280;801;47.982;7.810;2022-12-18T03:30:37;99715.56;;;-5.36;100.00
1616;BME280;801;47.982;7.810;2022-12-18T03:33:08;99705.47;;;-5.10;100.00
1616;BME280;801;47.982;7.810;2022-12-18T03:35:39;99712.13;;;-4.96;100.00
1616;BME280;801;47.982;7.810;2022-12-18T03:38:06;99713.41;;;-4.90;100.00
1616;BME280;801;47.982;7.810;2022-12-18T03:40:43;99716.03;;;-4.90;100.00
1616;BME280;801;47.982;7.810;2022-12-18T03:43:16;99712.72;;;-4.83;100.00
1616;BME280;801;47.982;7.810;2022-12-18T03:45:51;99717.78;;;-5.83;100.00
1616;BME280;801;47.982;7.810;2022-12-18T03:48:25;99716.03;;;-5.31;100.00
1616;BME280;801;47.982;7.810;2022-12-18T03:50:56;99712.88;;;-5.25;100.00
1616;BME280;801;47.982;7.810;2022-12-18T03:53:31;99721.59;;;-5.14;100.00
1616;BME280;801;47.982;7.810;2022-12-18T03:56:00;99722.88;;;-5.09;100.00
1616;BME280;801;47.982;7.810;2022-12-18T03:58:29;99719.41;;;-5.09;100.00
1616;BME280;801;47.982;7.810;2022-12-18T04:01:01;99724.09;;;-5.13;100.00
1616;BME280;801;47.982;7.810;2022-12-18T04:03:29;99728.94;;;-5.08;100.00
1616;BME280;801;47.982;7.810;2022-12-18T04:05:59;99720.88;;;-5.16;100.00
1616;BME280;801;47.982;7.810;2022-12-18T04:08:27;99714.56;;;-5.14;100.00
1616;BME280;801;47.982;7.810;2022-12-18T04:10:55;99710.38;;;-5.26;100.00
1616;BME280;801;47.982;7.810;2022-12-18T04:13:22;99716.03;;;-5.21;100.00
1616;BME280;801;47.982;7.810;2022-12-18T04:15:49;99705.94;;;-5.35;100.00
1616;BME280;801;47.982;7.810;2022-12-18T04:18:17;99709.81;;;-5.30;100.00
1616;BME280;801;47.982;7.810;2022-12-18T04:20:43;99714.47;;;-5.64;100.00
1616;BME280;801;47.982;7.810;2022-12-18T04:23:10;99718.44;;;-5.39;100.00
1616;BME280;801;47.982;7.810;2022-12-18T04:25:36;99724.03;;;-6.16;100.00
1616;BME280;801;47.982;7.810;2022-12-18T04:28:03;99708.31;;;-5.53;100.00
1616;BME280;801;47.982;7.810;2022-12-18T04:30:30;99700.91;;;-5.48;100.00
1616;BME280;801;47.982;7.810;2022-12-18T04:32:56;99705.94;;;-5.35;100.00
1616;BME280;801;47.982;7.810;2022-12-18T04:35:24;99704.28;;;-5.57;100.00
1616;BME280;801;47.982;7.810;2022-12-18T04:37:51;99702.34;;;-5.34;100.00
1616;BME280;801;47.982;7.810;2022-12-18T04:40:18;99704.03;;;-5.24;100.00
1616;BME280;801;47.982;7.810;2022-12-18T04:42:44;99708.66;;;-5.37;100.00
1616;BME280;801;47.982;7.810;2022-12-18T04:45:11;99714.94;;;-5.49;100.00
1616;BME280;801;47.982;7.810;2022-12-18T04:47:37;99706.41;;;-5.51;100.00
1616;BME280;801;47.982;7.810;2022-12-18T04:50:05;99702.22;;;-5.54;100.00
1616;BME280;801;47.982;7.810;2022-12-18T04:52:33;99694.00;;;-5.70;100.00
1616;BME280;801;47.982;7.810;2022-12-18T04:54:59;99701.56;;;-5.77;100.00
1616;BME280;801;47.982;7.810;2022-12-18T04:57:26;99707.69;;;-5.67;100.00
1616;BME280;801;47.982;7.810;2022-12-18T04:59:52;99708.28;;;-6.05;100.00
1616;BME280;801;47.982;7.810;2022-12-18T05:02:19;99711.38;;;-5.90;100.00
1616;BME280;801;47.982;7.810;2022-12-18T05:04:45;99716.97;;;-6.04;100.00
1616;BME280;801;47.982;7.810;2022-12-18T05:07:12;99717.44;;;-6.32;100.00
1616;BME280;801;47.982;7.810;2022-12-18T05:09:40;99705.53;;;-6.03;100.00
1616;BME280;801;47.982;7.810;2022-12-18T05:12:06;99704.00;;;-6.27;100.00
1616;BME280;801;47.982;7.810;2022-12-18T05:14:33;99709.56;;;-6.20;100.00
1616;BME280;801;47.982;7.810;2022-12-18T05:16:59;99704.00;;;-6.27;100.00
1616;BME280;801;47.982;7.810;2022-12-18T05:19:26;99707.06;;;-6.22;100.00
1616;BME280;801;47.982;7.810;2022-12-18T05:21:52;99706.03;;;-6.31;100.00
1616;BME280;801;47.982;7.810;2022-12-18T05:24:19;99710.53;;;-6.33;100.00
1616;BME280;801;47.982;7.810;2022-12-18T05:26:47;99709.84;;;-6.35;100.00
1616;BME280;801;47.982;7.810;2022-12-18T05:29:13;99703.47;;;-6.21;100.00
1616;BME280;801;47.982;7.810;2022-12-18T05:31:40;99706.31;;;-6.13;100.00
1616;BME280;801;47.982;7.810;2022-12-18T05:34:07;99705.75;;;-6.28;100.00
1616;BME280;801;47.982;7.810;2022-12-18T05:36:33;99697.41;;;-6.21;100.00
1616;BME280;801;47.982;7.810;2022-12-18T05:39:00;99697.75;;;-6.15;100.00
1616;BME280;801;47.982;7.810;2022-12-18T05:41:27;99701.00;;;-6.22;100.00
1616;BME280;801;47.982;7.810;2022-12-18T05:43:55;99703.72;;;-6.24;100.00
1616;BME280;801;47.982;7.810;2022-12-18T05:46:21;99693.75;;;-6.30;100.00
1616;BME280;801;47.982;7.810;2022-12-18T05:48:49;99693.84;;;-6.53;100.00
1616;BME280;801;47.982;7.810;2022-12-18T05:51:17;99701.66;;;-6.41;100.00
1616;BME280;801;47.982;7.810;2022-12-18T05:53:44;99700.28;;;-6.57;100.00
1616;BME280;801;47.982;7.810;2022-12-18T05:56:16;99710.69;;;-6.45;100.00
1616;BME280;801;47.982;7.810;2022-12-18T05:58:44;99706.19;;;-6.43;100.00
1616;BME280;801;47.982;7.810;2022-12-18T06:01:14;99715.00;;;-6.44;100.00
1616;BME280;801;47.982;7.810;2022-12-18T06:03:41;99711.78;;;-6.48;100.00
1616;BME280;801;47.982;7.810;2022-12-18T06:06:15;99721.44;;;-6.60;100.00
1616;BME280;801;47.982;7.810;2022-12-18T06:08:42;99726.94;;;-6.74;100.00
1616;BME280;801;47.982;7.810;2022-12-18T06:11:09;99728.59;;;-6.62;100.00
1616;BME280;801;47.982;7.810;2022-12-18T06:13:36;99726.72;;;-6.71;100.00
1616;BME280;801;47.982;7.810;2022-12-18T06:16:03;99735.25;;;-6.69;100.00
1616;BME280;801;47.982;7.810;2022-12-18T06:18:31;99740.25;;;-6.66;100.00
1616;BME280;801;47.982;7.810;2022-12-18T06:20:59;99747.50;;;-6.70;100.00
1616;BME280;801;47.982;7.810;2022-12-18T06:23:26;99746.66;;;-6.81;100.00
1616;BME280;801;47.982;7.810;2022-12-18T06:25:53;99747.28;;;-6.78;100.00
1616;BME280;801;47.982;7.810;2022-12-18T06:28:20;99753.31;;;-6.77;100.00
1616;BME280;801;47.982;7.810;2022-12-18T06:30:47;99756.66;;;-6.75;100.00
1616;BME280;801;47.982;7.810;2022-12-18T06:33:15;99758.47;;;-6.87;100.00
1616;BME280;801;47.982;7.810;2022-12-18T06:35:43;99759.28;;;-6.86;100.00
1616;BME280;801;47.982;7.810;2022-12-18T06:38:10;99769.28;;;-6.80;100.00
1616;BME280;801;47.982;7.810;2022-12-18T06:40:37;99768.91;;;-6.87;100.00
1616;BME280;801;47.982;7.810;2022-12-18T06:43:03;99770.00;;;-6.90;100.00
1616;BME280;801;47.982;7.810;2022-12-18T06:45:30;99770.22;;;-6.93;100.00
1616;BME280;801;47.982;7.810;2022-12-18T06:47:56;99772.72;;;-6.91;100.00
1616;BME280;801;47.982;7.810;2022-12-18T06:50:23;99773.31;;;-6.87;100.00
1616;BME280;801;47.982;7.810;2022-12-18T06:52:50;99775.94;;;-6.76;100.00
1616;BME280;801;47.982;7.810;2022-12-18T06:55:17;99770.00;;;-6.90;100.00
1616;BME280;801;47.982;7.810;2022-12-18T06:57:44;99781.97;;;-6.87;100.00
1616;BME280;801;47.982;7.810;2022-12-18T07:00:11;99782.56;;;-6.95;100.00
1616;BME280;801;47.982;7.810;2022-12-18T07:02:38;99783.53;;;-6.84;100.00
1616;BME280;801;47.982;7.810;2022-12-18T07:05:06;99783.06;;;-6.90;100.00
1616;BME280;801;47.982;7.810;2022-12-18T07:07:33;99784.59;;;-6.87;100.00
1616;BME280;801;47.982;7.810;2022-12-18T07:10:01;99785.91;;;-6.93;100.00
1616;BME280;801;47.982;7.810;2022-12-18T07:12:28;99783.06;;;-6.78;100.00
1616;BME280;801;47.982;7.810;2022-12-18T07:14:55;99776.41;;;-6.82;100.00
1616;BME280;801;47.982;7.810;2022-12-18T07:17:22;99783.53;;;-6.84;100.00
1616;BME280;801;47.982;7.810;2022-12-18T07:19:48;99782.56;;;-6.95;100.00
1616;BME280;801;47.982;7.810;2022-12-18T07:22:15;99788.03;;;-6.86;100.00
1616;BME280;801;47.982;7.810;2022-12-18T07:24:41;99793.50;;;-7.12;100.00
1616;BME280;801;47.982;7.810;2022-12-18T07:27:09;99797.53;;;-6.97;100.00
1616;BME280;801;47.982;7.810;2022-12-18T07:29:36;99795.63;;;-6.95;100.00
1616;BME280;801;47.982;7.810;2022-12-18T07:32:02;99796.34;;;-6.93;100.00
1616;BME280;801;47.982;7.810;2022-12-18T07:34:29;99805.00;;;-6.92;100.00
1616;BME280;801;47.982;7.810;2022-12-18T07:36:55;99813.22;;;-6.97;100.00
1616;BME280;801;47.982;7.810;2022-12-18T07:39:22;99819.88;;;-6.81;100.00
1616;BME280;801;47.982;7.810;2022-12-18T07:41:48;99830.47;;;-6.94;100.00
1616;BME280;801;47.982;7.810;2022-12-18T07:44:36;99839.81;;;-7.14;100.00
1616;BME280;801;47.982;7.810;2022-12-18T07:47:03;99834.34;;;-7.11;100.00
1616;BME280;801;47.982;7.810;2022-12-18T07:49:29;99833.41;;;-6.99;100.00
1616;BME280;801;47.982;7.810;2022-12-18T07:51:57;99836.97;;;-7.00;100.00
1616;BME280;801;47.982;7.810;2022-12-18T07:54:24;99846.16;;;-6.94;100.00
1616;BME280;801;47.982;7.810;2022-12-18T07:56:51;99856.06;;;-7.57;100.00
1616;BME280;801;47.982;7.810;2022-12-18T07:59:18;99847.44;;;-7.46;100.00
1616;BME280;801;47.982;7.810;2022-12-18T08:01:46;99853.78;;;-7.38;100.00
1616;BME280;801;47.982;7.810;2022-12-18T08:04:12;99859.38;;;-7.66;100.00
1616;BME280;801;47.982;7.810;2022-12-18T08:06:39;99864.81;;;-7.69;100.00
1616;BME280;801;47.982;7.810;2022-12-18T08:09:05;99849.06;;;-7.21;100.00
1616;BME280;801;47.982;7.810;2022-12-18T08:11:33;99853.78;;;-7.38;100.00
1616;BME280;801;47.982;7.810;2022-12-18T08:14:00;99854.31;;;-7.57;100.00
1616;BME280;801;47.982;7.810;2022-12-18T08:16:26;99855.97;;;-7.20;100.00
1616;BME280;801;47.982;7.810;2022-12-18T08:18:54;99855.03;;;-6.97;100.00
1616;BME280;801;47.982;7.810;2022-12-18T08:21:23;99844.63;;;-7.79;100.00
1616;BME280;801;47.982;7.810;2022-12-18T08:23:52;99854.69;;;-7.85;100.00
1616;BME280;801;47.982;7.810;2022-12-18T08:26:19;99841.19;;;-8.03;100.00
1616;BME280;801;47.982;7.810;2022-12-18T08:28:46;99834.13;;;-7.55;100.00
1616;BME280;801;47.982;7.810;2022-12-18T08:31:12;99834.00;;;-7.18;100.00
1616;BME280;801;47.982;7.810;2022-12-18T08:33:40;99827.50;;;-6.90;100.00
1616;BME280;801;47.982;7.810;2022-12-18T08:36:09;99829.13;;;-6.43;100.00
1616;BME280;801;47.982;7.810;2022-12-18T08:38:35;99826.03;;;-6.37;100.00
1616;BME280;801;47.982;7.810;2022-12-18T08:41:06;99814.81;;;-6.28;100.00
1616;BME280;801;47.982;7.810;2022-12-18T08:43:32;99805.22;;;-5.95;100.00
1616;BME280;801;47.982;7.810;2022-12-18T08:46:16;99797.78;;;-5.58;100.00
1616;BME280;801;47.982;7.810;2022-12-18T08:48:43;99803.63;;;-5.87;100.00
1616;BME280;801;47.982;7.810;2022-12-18T08:51:11;99798.78;;;-6.35;100.00
1616;BME280;801;47.982;7.810;2022-12-18T08:53:38;99791.13;;;-6.93;100.00
1616;BME280;801;47.982;7.810;2022-12-18T08:56:05;99792.66;;;-6.79;100.00
1616;BME280;801;47.982;7.810;2022-12-18T08:58:32;99787.31;;;-7.00;100.00
1616;BME280;801;47.982;7.810;2022-12-18T09:01:00;99784.59;;;-6.98;100.00
1616;BME280;801;47.982;7.810;2022-12-18T09:03:27;99791.25;;;-6.83;100.00
1616;BME280;801;47.982;7.810;2022-12-18T09:05:53;99785.44;;;-7.09;100.00
1616;BME280;801;47.982;7.810;2022-12-18T09:08:21;99793.16;;;-6.85;100.00
1616;BME280;801;47.982;7.810;2022-12-18T09:10:49;99793.72;;;-6.81;100.00
1616;BME280;801;47.982;7.810;2022-12-18T09:13:16;99792.09;;;-6.94;100.00
1616;BME280;801;47.982;7.810;2022-12-18T09:15:44;99789.81;;;-7.10;100.00
1616;BME280;801;47.982;7.810;2022-12-18T09:18:12;99785.63;;;-6.56;100.00
1616;BME280;801;47.982;7.810;2022-12-18T09:20:39;99788.25;;;-6.56;100.00
1616;BME280;801;47.982;7.810;2022-12-18T09:23:06;99798.66;;;-6.22;100.00
1616;BME280;801;47.982;7.810;2022-12-18T09:25:35;99796.50;;;-6.28;100.00
1616;BME280;801;47.982;7.810;2022-12-18T09:28:06;99794.69;;;-6.82;100.00
1616;BME280;801;47.982;7.810;2022-12-18T09:30:33;99801.50;;;-6.25;100.00
1616;BME280;801;47.982;7.810;2022-12-18T09:33:00;99801.50;;;-6.25;100.00
1616;BME280;801;47.982;7.810;2022-12-18T09:35:30;99793.69;;;-6.48;100.00
1616;BME280;801;47.982;7.810;2022-12-18T09:37:59;99795.72;;;-6.51;100.00
1616;BME280;801;47.982;7.810;2022-12-18T09:40:34;99804.00;;;-6.35;100.00
1616;BME280;801;47.982;7.810;2022-12-18T09:43:04;99814.72;;;-6.27;100.00
1616;BME280;801;47.982;7.810;2022-12-18T09:45:35;99824.03;;;-6.56;100.00
1616;BME280;801;47.982;7.810;2022-12-18T09:48:05;99824.19;;;-6.14;100.00
1616;BME280;801;47.982;7.810;2022-12-18T09:50:35;99830.50;;;-6.17;100.00
1616;BME280;801;47.982;7.810;2022-12-18T09:53:06;99836.34;;;-6.24;100.00
1616;BME280;801;47.982;7.810;2022-12-18T09:55:38;99833.41;;;-5.67;100.00
1616;BME280;801;47.982;7.810;2022-12-18T09:58:14;99819.34;;;-5.66;100.00
1616;BME280;801;47.982;7.810;2022-12-18T10:00:46;99823.19;;;-5.28;100.00
1616;BME280;801;47.982;7.810;2022-12-18T10:03:14;99820.06;;;-5.43;100.00
1616;BME280;801;47.982;7.810;2022-12-18T10:05:46;99825.81;;;-5.49;100.00
1616;BME280;801;47.982;7.810;2022-12-18T10:08:27;99822.00;;;-5.98;100.00
1616;BME280;801;47.982;7.810;2022-12-18T10:11:20;99818.72;;;-5.37;100.00
1616;BME280;801;47.982;7.810;2022-12-18T10:13:53;99819.03;;;-5.30;100.00
1616;BME280;801;47.982;7.810;2022-12-18T10:16:27;99810.03;;;-5.37;100.00
1616;BME280;801;47.982;7.810;2022-12-18T10:19:18;99797.19;;;-4.89;100.00
1616;BME280;801;47.982;7.810;2022-12-18T10:21:51;99791.19;;;-4.60;100.00
1616;BME280;801;47.982;7.810;2022-12-18T10:24:28;99781.88;;;-4.33;100.00
1616;BME280;801;47.982;7.810;2022-12-18T10:27:00;99769.75;;;-3.96;100.00
1616;BME280;801;47.982;7.810;2022-12-18T10:29:35;99778.19;;;-3.82;100.00
1616;BME280;801;47.982;7.810;2022-12-18T10:32:02;99768.66;;;-3.64;100.00
1616;BME280;801;47.982;7.810;2022-12-18T10:34:29;99773.06;;;-3.55;100.00
1616;BME280;801;47.982;7.810;2022-12-18T10:36:56;99769.56;;;-3.36;100.00
1616;BME280;801;47.982;7.810;2022-12-18T10:39:24;99755.81;;;-3.20;100.00
1616;BME280;801;47.982;7.810;2022-12-18T10:41:51;99762.09;;;-2.93;100.00
1616;BME280;801;47.982;7.810;2022-12-18T10:44:20;99762.75;;;-2.81;100.00
1616;BME280;801;47.982;7.810;2022-12-18T10:46:50;99754.34;;;-3.32;100.00
1616;BME280;801;47.982;7.810;2022-12-18T10:49:23;99767.59;;;-3.24;100.00
1616;BME280;801;47.982;7.810;2022-12-18T10:51:51;99765.47;;;-3.10;100.00
1616;BME280;801;47.982;7.810;2022-12-18T10:54:21;99763.16;;;-2.86;100.00
1616;BME280;801;47.982;7.810;2022-12-18T10:56:48;99755.38;;;-2.78;100.00
1616;BME280;801;47.982;7.810;2022-12-18T10:59:17;99756.13;;;-2.85;100.00
1616;BME280;801;47.982;7.810;2022-12-18T11:01:50;99757.63;;;-2.10;100.00
1616;BME280;801;47.982;7.810;2022-12-18T11:04:19;99750.97;;;-2.32;100.00
1616;BME280;801;47.982;7.810;2022-12-18T11:06:57;99742.50;;;-2.53;100.00
1616;BME280;801;47.982;7.810;2022-12-18T11:09:26;99748.34;;;-2.59;100.00
1616;BME280;801;47.982;7.810;2022-12-18T11:11:54;99748.19;;;-2.30;100.00
1616;BME280;801;47.982;7.810;2022-12-18T11:14:23;99745.69;;;-2.49;100.00
1616;BME280;801;47.982;7.810;2022-12-18T11:16:54;99749.63;;;-2.18;100.00
1616;BME280;801;47.982;7.810;2022-12-18T11:19:28;99752.41;;;-2.19;100.00
1616;BME280;801;47.982;7.810;2022-12-18T11:21:56;99754.56;;;-2.33;100.00
1616;BME280;801;47.982;7.810;2022-12-18T11:24:27;99757.13;;;-2.41;100.00
1616;BME280;801;47.982;7.810;2022-12-18T11:26:55;99752.41;;;-2.19;100.00
1616;BME280;801;47.982;7.810;2022-12-18T11:29:24;99747.66;;;-2.61;100.00
1616;BME280;801;47.982;7.810;2022-12-18T11:32:19;99749.47;;;-2.62;100.00
1616;BME280;801;47.982;7.810;2022-12-18T11:34:52;99751.94;;;-1.97;100.00
1616;BME280;801;47.982;7.810;2022-12-18T11:37:21;99763.84;;;-1.93;100.00
1616;BME280;801;47.982;7.810;2022-12-18T11:39:52;99766.78;;;-1.78;100.00
1616;BME280;801;47.982;7.810;2022-12-18T11:42:24;99769.81;;;-1.91;100.00
1616;BME280;801;47.982;7.810;2022-12-18T11:44:55;99766.22;;;-1.90;100.00
1616;BME280;801;47.982;7.810;2022-12-18T11:47:29;99754.13;;;-1.30;100.00
1616;BME280;801;47.982;7.810;2022-12-18T11:50:00;99759.56;;;-1.94;100.00
1616;BME280;801;47.982;7.810;2022-12-18T11:52:33;99749.44;;;-1.62;100.00
1616;BME280;801;47.982;7.810;2022-12-18T11:55:10;99746.59;;;-0.48;100.00
1616;BME280;801;47.982;7.810;2022-12-18T11:57:43;99733.06;;;-0.45;100.00
1616;BME280;801;47.982;7.810;2022-12-18T12:00:14;99737.13;;;-1.01;100.00
1616;BME280;801;47.982;7.810;2022-12-18T12:03:04;99727.06;;;-0.64;100.00
1616;BME280;801;47.982;7.810;2022-12-18T12:05:44;99724.66;;;-0.83;100.00
1616;BME280;801;47.982;7.810;2022-12-18T12:08:20;99723.56;;;0.03;100.00
1616;BME280;801;47.982;7.810;2022-12-18T12:11:02;99728.69;;;0.29;100.00
1616;BME280;801;47.982;7.810;2022-12-18T12:13:44;99721.56;;;-0.78;100.00
1616;BME280;801;47.982;7.810;2022-12-18T12:16:18;99712.81;;;-0.04;100.00
1616;BME280;801;47.982;7.810;2022-12-18T12:18:59;99711.69;;;0.07;100.00
1616;BME280;801;47.982;7.810;2022-12-18T12:21:34;99714.00;;;0.18;100.00
1616;BME280;801;47.982;7.810;2022-12-18T12:24:12;99710.28;;;-0.97;100.00
1616;BME280;801;47.982;7.810;2022-12-18T12:26:49;99696.78;;;-0.27;100.00
1616;BME280;801;47.982;7.810;2022-12-18T12:29:31;99702.75;;;0.00;100.00
1616;BME280;801;47.982;7.810;2022-12-18T12:32:11;99702.44;;;0.11;100.00
1616;BME280;801;47.982;7.810;2022-12-18T12:34:50;99699.13;;;0.01;100.00
1616;BME280;801;47.982;7.810;2022-12-18T12:37:26;99697.78;;;0.22;100.00
1616;BME280;801;47.982;7.810;2022-12-18T12:39:54;99706.00;;;-0.39;100.00
1616;BME280;801;47.982;7.810;2022-12-18T12:42:27;99710.06;;;-0.69;100.00
1616;BME280;801;47.982;7.810;2022-12-18T12:45:16;99716.78;;;-0.24;100.00
1616;BME280;801;47.982;7.810;2022-12-18T12:47:45;99718.59;;;0.08;100.00
1616;BME280;801;47.982;7.810;2022-12-18T12:50:16;99724.63;;;-0.49;100.00
1616;BME280;801;47.982;7.810;2022-12-18T12:52:45;99721.88;;;-0.31;100.00
1616;BME280;801;47.982;7.810;2022-12-18T12:55:16;99714.81;;;-0.06;100.00
1616;BME280;801;47.982;7.810;2022-12-18T12:57:47;99711.66;;;-0.01;100.00
1616;BME280;801;47.982;7.810;2022-12-18T13:00:18;99705.56;;;0.15;100.00
1616;BME280;801;47.982;7.810;2022-12-18T13:02:50;99701.75;;;0.09;100.00
1616;BME280;801;47.982;7.810;2022-12-18T13:05:23;99705.19;;;-0.39;100.00
1616;BME280;801;47.982;7.810;2022-12-18T13:07:54;99695.16;;;0.05;100.00
1616;BME280;801;47.982;7.810;2022-12-18T13:10:33;99692.81;;;0.27;100.00
1616;BME280;801;47.982;7.810;2022-12-18T13:13:02;99699.09;;;0.34;100.00
1616;BME280;801;47.982;7.810;2022-12-18T13:15:32;99683.47;;;0.80;100.00
1616;BME280;801;47.982;7.810;2022-12-18T13:18:04;99683.63;;;1.18;100.00
1616;BME280;801;47.982;7.810;2022-12-18T13:20:37;99693.31;;;1.65;100.00
1616;BME280;801;47.982;7.810;2022-12-18T13:23:29;99686.53;;;1.39;100.00
1616;BME280;801;47.982;7.810;2022-12-18T13:25:58;99678.34;;;2.18;100.00
1616;BME280;801;47.982;7.810;2022-12-18T13:28:50;99674.47;;;2.06;100.00
1616;BME280;801;47.982;7.810;2022-12-18T13:34:34;99682.59;;;1.58;100.00
1616;BME280;801;47.982;7.810;2022-12-18T13:43:28;99675.25;;;1.45;100.00
1616;BME280;801;47.982;7.810;2022-12-18T13:46:04;99673.03;;;2.18;100.00
1616;BME280;801;47.982;7.810;2022-12-18T13:48:33;99672.84;;;1.82;100.00
1616;BME280;801;47.982;7.810;2022-12-18T13:51:03;99678.34;;;2.18;100.00
1616;BME280;801;47.982;7.810;2022-12-18T13:53:34;99674.97;;;2.24;100.00
1616;BME280;801;47.982;7.810;2022-12-18T13:56:02;99674.84;;;1.57;100.00
1616;BME280;801;47.982;7.810;2022-12-18T13:58:30;99674.75;;;1.65;100.00
1616;BME280;801;47.982;7.810;2022-12-18T14:00:58;99678.53;;;1.16;100.00
1616;BME280;801;47.982;7.810;2022-12-18T14:03:29;99674.06;;;1.71;100.00
1616;BME280;801;47.982;7.810;2022-12-18T14:06:01;99673.38;;;1.77;100.00
1616;BME280;801;47.982;7.810;2022-12-18T14:08:34;99660.19;;;1.92;100.00
1616;BME280;801;47.982;7.810;2022-12-18T14:11:03;99663.38;;;2.02;100.00
1616;BME280;801;47.982;7.810;2022-12-18T14:13:33;99662.56;;;2.02;100.00
1616;BME280;801;47.982;7.810;2022-12-18T14:16:03;99658.34;;;1.93;100.00
1616;BME280;801;47.982;7.810;2022-12-18T14:18:35;99669.81;;;1.85;100.00
1616;BME280;801;47.982;7.810;2022-12-18T14:21:04;99666.47;;;1.68;100.00
1616;BME280;801;47.982;7.810;2022-12-18T14:23:33;99664.41;;;1.55;100.00
1616;BME280;801;47.982;7.810;2022-12-18T14:26:01;99655.44;;;1.33;100.00
1616;BME280;801;47.982;7.810;2022-12-18T14:28:28;99653.31;;;1.29;100.00
1616;BME280;801;47.982;7.810;2022-12-18T14:30:56;99655.84;;;1.14;100.00
1616;BME280;801;47.982;7.810;2022-12-18T14:33:24;99659.06;;;1.01;100.00
1616;BME280;801;47.982;7.810;2022-12-18T14:35:56;99657.19;;;0.78;100.00
1616;BME280;801;47.982;7.810;2022-12-18T14:38:26;99663.81;;;0.74;100.00
1616;BME280;801;47.982;7.810;2022-12-18T14:40:55;99666.97;;;0.70;100.00
1616;BME280;801;47.982;7.810;2022-12-18T14:43:22;99662.13;;;0.81;100.00
1616;BME280;801;47.982;7.810;2022-12-18T14:45:49;99664.72;;;0.34;100.00
1616;BME280;801;47.982;7.810;2022-12-18T14:48:19;99663.38;;;0.38;100.00
1616;BME280;801;47.982;7.810;2022-12-18T14:50:56;99670.38;;;0.23;100.00
1616;BME280;801;47.982;7.810;2022-12-18T14:53:31;99668.69;;;0.22;100.00
1616;BME280;801;47.982;7.810;2022-12-18T14:55:58;99678.81;;;0.18;100.00
1616;BME280;801;47.982;7.810;2022-12-18T14:58:25;99679.09;;;-0.18;100.00
1616;BME280;801;47.982;7.810;2022-12-18T15:00:51;99666.22;;;0.20;100.00
1616;BME280;801;47.982;7.810;2022-12-18T15:03:20;99668.38;;;0.25;100.00
1616;BME280;801;47.982;7.810;2022-12-18T15:05:47;99670.50;;;0.37;100.00
1616;BME280;801;47.982;7.810;2022-12-18T15:08:28;99677.59;;;0.29;100.00
1616;BME280;801;47.982;7.810;2022-12-18T15:10:55;99688.22;;;0.20;100.00
1616;BME280;801;47.982;7.810;2022-12-18T15:13:23;99690.50;;;0.15;100.00
1616;BME280;801;47.982;7.810;2022-12-18T15:15:51;99695.13;;;-0.28;100.00
1616;BME280;801;47.982;7.810;2022-12-18T15:18:21;99695.16;;;-0.19;100.00
1616;BME280;801;47.982;7.810;2022-12-18T15:20:52;99692.50;;;0.05;100.00
1616;BME280;801;47.982;7.810;2022-12-18T15:23:21;99702.25;;;-0.12;100.00
1616;BME280;801;47.982;7.810;2022-12-18T15:25:55;99708.31;;;-0.28;100.00
1616;BME280;801;47.982;7.810;2022-12-18T15:28:23;99704.84;;;-0.45;100.00
1616;BME280;801;47.982;7.810;2022-12-18T15:31:01;99706.22;;;-0.08;100.00
1616;BME280;801;47.982;7.810;2022-12-18T15:33:33;99699.94;;;0.02;100.00
1616;BME280;801;47.982;7.810;2022-12-18T15:36:01;99706.03;;;0.10;100.00
1616;BME280;801;47.982;7.810;2022-12-18T15:38:28;99705.41;;;0.00;100.00
1616;BME280;801;47.982;7.810;2022-12-18T15:40:55;99705.56;;;-0.02;100.00
1616;BME280;801;47.982;7.810;2022-12-18T15:43:22;99699.75;;;-0.22;100.00
1616;BME280;801;47.982;7.810;2022-12-18T15:46:05;99707.00;;;-0.32;100.00
1616;BME280;801;47.982;7.810;2022-12-18T15:48:35;99708.34;;;-0.19;100.00
1616;BME280;801;47.982;7.810;2022-12-18T15:51:02;99706.06;;;-0.06;100.00
1616;BME280;801;47.982;7.810;2022-12-18T15:53:30;99705.72;;;-0.03;100.00
1616;BME280;801;47.982;7.810;2022-12-18T15:55:58;99700.75;;;0.02;100.00
1616;BME280;801;47.982;7.810;2022-12-18T15:58:42;99708.50;;;-0.05;100.00
1616;BME280;801;47.982;7.810;2022-12-18T16:01:10;99700.75;;;-0.14;100.00
1616;BME280;801;47.982;7.810;2022-12-18T16:03:38;99703.88;;;-0.19;100.00
1616;BME280;801;47.982;7.810;2022-12-18T16:06:05;99699.75;;;-0.22;100.00
1616;BME280;801;47.982;7.810;2022-12-18T16:08:32;99699.41;;;-0.35;100.00
1616;BME280;801;47.982;7.810;2022-12-18T16:10:59;99698.66;;;-0.70;100.00
1616;BME280;801;47.982;7.810;2022-12-18T16:13:26;99691.16;;;-0.24;100.00
1616;BME280;801;47.982;7.810;2022-12-18T16:15:52;99696.13;;;-0.21;100.00
1616;BME280;801;47.982;7.810;2022-12-18T16:18:19;99695.81;;;-0.17;100.00
1616;BME280;801;47.982;7.810;2022-12-18T16:20:47;99691.28;;;-0.58;100.00
1616;BME280;801;47.982;7.810;2022-12-18T16:23:13;99694.81;;;-0.16;100.00
1616;BME280;801;47.982;7.810;2022-12-18T16:25:40;99692.03;;;-0.07;100.00
1616;BME280;801;47.982;7.810;2022-12-18T16:28:06;99692.19;;;0.00;100.00
1616;BME280;801;47.982;7.810;2022-12-18T16:30:33;99685.91;;;-0.15;100.00
1616;BME280;801;47.982;7.810;2022-12-18T16:33:00;99687.03;;;-0.10;100.00
1616;BME280;801;47.982;7.810;2022-12-18T16:35:26;99679.78;;;0.01;100.00
1616;BME280;801;47.982;7.810;2022-12-18T16:37:54;99681.59;;;-0.16;100.00
1616;BME280;801;47.982;7.810;2022-12-18T16:40:21;99687.13;;;-0.69;100.00
1616;BME280;801;47.982;7.810;2022-12-18T16:42:47;99677.13;;;-0.24;100.00
1616;BME280;801;47.982;7.810;2022-12-18T16:45:16;99675.66;;;-0.27;100.00
1616;BME280;801;47.982;7.810;2022-12-18T16:47:43;99683.59;;;-0.10;100.00
1616;BME280;801;47.982;7.810;2022-12-18T16:50:10;99690.25;;;-0.65;100.00
1616;BME280;801;47.982;7.810;2022-12-18T16:52:37;99682.38;;;-0.40;100.00
1616;BME280;801;47.982;7.810;2022-12-18T16:55:07;99681.75;;;-0.18;100.00
1616;BME280;801;47.982;7.810;2022-12-18T16:57:33;99676.31;;;-0.08;100.00
1616;BME280;801;47.982;7.810;2022-12-18T17:00:00;99676.63;;;-0.11;100.00
1616;BME280;801;47.982;7.810;2022-12-18T17:02:27;99671.19;;;-0.18;100.00
1616;BME280;801;47.982;7.810;2022-12-18T17:04:54;99676.16;;;-0.31;100.00
1616;BME280;801;47.982;7.810;2022-12-18T17:07:21;99670.19;;;-0.33;100.00
1616;BME280;801;47.982;7.810;2022-12-18T17:09:48;99674.97;;;-0.21;100.00
1616;BME280;801;47.982;7.810;2022-12-18T17:12:17;99675.84;;;-0.79;100.00
1616;BME280;801;47.982;7.810;2022-12-18T17:14:43;99678.59;;;-0.97;100.00
1616;BME280;801;47.982;7.810;2022-12-18T17:17:10;99676.88;;;-0.72;100.00